[Jeden Mittwoch | 1730z - 2030z | EDDM] München Mittwoch

Zu Eventkalender hinzugefügt: 59 Daten

Samy Greve

874505
RG München - Event
RG München - NAV
RG München - Mentor


Und schon wieder ist Mittwoch! Die Woche ging schon wieder vieeeel zu schnell rum! Die ATC Crew heute Abend hat sich mental schon vorbereitet und die Stationen gebucht. Ab 1930 Uhr Lokal ist der Flughafen München für euch wieder 1A besetzt!
EDDM 231152Z 2312/2418 25008KT 9999 SCT020 TEMPO 2312/2317 4500 SHRA SCT012 BKN020CB TEMPO 2318/2407 22003KT BECMG 2415/2417 VRB03KT
Ebenfalls haben wir diese Woche auch wieder unseren Shuttle mit den Kollegen aus Berlin im Programm: Schau doch mal hier!
Wir freuen uns auf euren Besuch! :)
 
Zuletzt bearbeitet:
Oben